Time;durP1;ratioP1;P1;durP2;ratioP2;P2;SDS_P1;SDS_P2;PMS_P1;PMS_P2;Temp;Humidity;BMP_temperature;BMP_pressure;BME280_temperature;BME280_humidity;BME280_pressure;Samples;Min_cycle;Max_cycle;Signal;HPM_P1;HPM_P2
2021/03/09 00:01:03;;;;;;;;;21.75;13.50;;;;;-0.18;71.06;100201.44;4975069;28;8860;-57
2021/03/09 00:03:30;;;;;;;;;14.75;12.75;;;;;-0.04;69.52;100206.56;4974096;28;9688;-57
2021/03/09 00:05:57;;;;;;;;;29.75;18.50;;;;;0.17;68.08;100211.63;4972647;28;8868;-57
2021/03/09 00:08:25;;;;;;;;;28.75;21.75;;;;;0.46;68.68;100201.63;4974578;28;8845;-57
2021/03/09 00:10:52;;;;;;;;;26.75;19.00;;;;;0.46;67.45;100209.56;4969481;28;8942;-58
2021/03/09 00:13:19;;;;;;;;;36.50;26.00;;;;;0.81;65.89;100212.59;4967688;28;8831;-57
2021/03/09 00:15:46;;;;;;;;;45.50;33.50;;;;;0.56;66.98;100211.19;4973923;28;8871;-57
2021/03/09 00:18:13;;;;;;;;;43.25;33.50;;;;;0.73;66.68;100208.31;4974909;28;8942;-58
2021/03/09 00:20:40;;;;;;;;;42.00;35.50;;;;;-0.13;69.11;100209.28;4968997;28;9562;-58
2021/03/09 00:23:07;;;;;;;;;26.25;20.00;;;;;0.25;68.60;100222.09;4974346;28;8871;-57
2021/03/09 00:25:34;;;;;;;;;34.50;27.75;;;;;0.26;69.31;100215.06;4974258;28;8880;-57
2021/03/09 00:28:01;;;;;;;;;39.75;27.50;;;;;0.19;68.48;100222.19;4967193;28;9546;-58
2021/03/09 00:30:28;;;;;;;;;34.25;23.00;;;;;0.11;67.94;100209.06;4983518;28;8875;-57
2021/03/09 00:32:59;;;;;;;;;24.00;21.75;;;;;0.01;67.34;100215.31;4973405;28;9565;-57
2021/03/09 00:35:26;;;;;;;;;22.75;17.75;;;;;0.24;65.81;100203.63;4959520;28;8854;-57
2021/03/09 00:37:53;;;;;;;;;20.75;15.75;;;;;0.33;66.42;100199.13;4958780;28;8836;-57
2021/03/09 00:40:20;;;;;;;;;23.00;18.00;;;;;0.33;66.30;100200.91;4964662;28;8855;-57
2021/03/09 00:42:47;;;;;;;;;22.50;18.00;;;;;0.08;66.45;100195.91;4971977;28;8832;-57
2021/03/09 00:45:14;;;;;;;;;19.50;12.50;;;;;0.08;65.84;100203.81;4969303;28;8856;-57
2021/03/09 00:47:57;;;;;;;;;13.50;13.50;;;;;0.36;65.96;100199.09;4974680;28;8943;-57
2021/03/09 00:50:24;;;;;;;;;12.75;11.50;;;;;0.27;66.92;100203.63;4970995;28;8844;-57
2021/03/09 00:52:51;;;;;;;;;24.00;16.25;;;;;0.37;67.04;100205.22;4973684;28;8832;-57
2021/03/09 00:55:18;;;;;;;;;20.75;18.25;;;;;0.06;68.38;100202.09;4966094;28;8869;-57
2021/03/09 00:58:00;;;;;;;;;23.50;14.50;;;;;-0.42;69.92;100201.63;4970415;28;8835;-57
2021/03/09 01:00:29;;;;;;;;;26.25;17.00;;;;;-0.59;69.84;100199.16;4970022;28;8874;-57
2021/03/09 01:03:00;;;;;;;;;19.75;17.00;;;;;-0.26;68.73;100193.59;4973641;28;8829;-58
2021/03/09 01:05:27;;;;;;;;;22.75;15.50;;;;;-0.76;70.40;100192.25;4963228;28;8876;-58
2021/03/09 01:07:54;;;;;;;;;20.25;9.75;;;;;-0.77;70.37;100195.75;4956573;28;8851;-57
2021/03/09 01:10:22;;;;;;;;;13.75;13.75;;;;;-0.74;71.18;100187.84;4968693;28;8879;-58
2021/03/09 01:12:49;;;;;;;;;15.25;13.50;;;;;-1.00;72.13;100188.03;4972353;28;8832;-57
2021/03/09 01:15:16;;;;;;;;;19.75;16.50;;;;;-1.01;72.60;100193.31;4997851;28;8876;-57
2021/03/09 01:17:44;;;;;;;;;22.25;13.25;;;;;-0.36;69.68;100191.06;4981955;28;9561;-58
2021/03/09 01:20:12;;;;;;;;;19.50;16.50;;;;;-0.69;70.01;100190.44;4969158;28;8848;-59
2021/03/09 01:22:39;;;;;;;;;18.50;12.50;;;;;-0.94;71.43;100193.25;4973152;28;8852;-57
2021/03/09 01:25:08;;;;;;;;;24.25;17.50;;;;;-0.99;71.89;100183.63;4967016;28;8885;-58
2021/03/09 01:27:35;;;;;;;;;22.50;16.50;;;;;-1.21;72.15;100185.50;4958730;28;8867;-57
2021/03/09 01:30:05;;;;;;;;;23.25;18.75;;;;;-1.30;72.87;100181.16;4959744;28;8970;-57
2021/03/09 01:32:38;;;;;;;;;21.25;15.00;;;;;-1.37;73.09;100182.06;4964201;28;8863;-57
2021/03/09 01:35:07;;;;;;;;;28.00;18.50;;;;;-1.53;74.01;100177.78;4973023;28;8958;-57
2021/03/09 01:37:34;;;;;;;;;21.25;16.25;;;;;-1.48;74.02;100179.50;4958361;28;8851;-58
2021/03/09 01:40:02;;;;;;;;;19.75;13.00;;;;;-1.59;73.66;100181.31;4969801;28;8844;-57
2021/03/09 01:42:29;;;;;;;;;20.75;16.00;;;;;-1.55;74.41;100185.69;4977357;28;8886;-58
2021/03/09 01:44:56;;;;;;;;;23.00;15.00;;;;;-1.56;73.68;100182.16;4959671;28;8885;-57
2021/03/09 01:47:23;;;;;;;;;17.00;12.75;;;;;-1.60;74.48;100183.06;4958194;28;8882;-58
2021/03/09 01:49:50;;;;;;;;;15.75;11.25;;;;;-1.66;74.65;100177.84;4965895;28;8845;-58
2021/03/09 01:52:17;;;;;;;;;27.00;16.00;;;;;-1.12;72.77;100175.78;4977127;28;8828;-58
2021/03/09 01:54:44;;;;;;;;;24.75;17.00;;;;;-1.58;73.50;100183.06;4977048;28;9573;-57
2021/03/09 01:57:11;;;;;;;;;16.75;13.00;;;;;-1.37;73.88;100188.25;4976456;28;8836;-58
2021/03/09 01:59:42;;;;;;;;;29.25;16.25;;;;;-1.11;73.00;100180.19;4975330;28;8959;-57
2021/03/09 02:02:10;;;;;;;;;38.75;28.00;;;;;-0.96;72.95;100178.34;4974736;28;8871;-57
2021/03/09 02:04:37;;;;;;;;;37.25;23.00;;;;;-1.24;73.18;100173.22;4976687;28;8935;-58
2021/03/09 02:07:04;;;;;;;;;45.00;30.75;;;;;-1.46;73.54;100177.75;4976899;28;8930;-57
2021/03/09 02:09:34;;;;;;;;;48.25;35.75;;;;;-1.23;74.10;100171.50;4972189;28;8855;-57
2021/03/09 02:12:18;;;;;;;;;34.75;26.00;;;;;-1.33;74.15;100179.44;4962577;28;8851;-58
2021/03/09 02:19:18;;;;;;;;;47.25;27.75;;;;;-1.53;75.52;100170.75;4964667;28;8879;-57
2021/03/09 02:22:23;;;;;;;;;41.50;26.50;;;;;-1.74;75.28;100171.72;4962999;28;8844;-58
2021/03/09 02:25:35;;;;;;;;;41.75;35.25;;;;;-1.89;75.52;100171.78;4975900;28;8859;-58
2021/03/09 02:28:11;;;;;;;;;36.75;26.25;;;;;-2.02;77.55;100174.44;4976694;28;8840;-57
2021/03/09 02:30:41;;;;;;;;;33.00;24.50;;;;;-1.93;76.56;100170.03;4959346;28;8847;-58
2021/03/09 02:33:13;;;;;;;;;36.50;25.75;;;;;-1.64;74.96;100165.53;4971201;28;8962;-57
2021/03/09 02:36:14;;;;;;;;;52.25;37.25;;;;;-1.58;73.71;100162.88;4976417;28;8887;-57
2021/03/09 02:39:01;;;;;;;;;41.25;26.25;;;;;-2.19;76.55;100163.06;4973166;28;8837;-56
2021/03/09 02:41:30;;;;;;;;;26.50;18.00;;;;;-1.87;75.53;100170.00;4971848;28;8841;-58
2021/03/09 02:43:58;;;;;;;;;25.75;19.00;;;;;-1.92;75.70;100161.25;4965975;28;8862;-57
2021/03/09 02:46:29;;;;;;;;;24.25;18.75;;;;;-2.21;75.58;100160.47;4963510;28;8860;-57
2021/03/09 02:48:58;;;;;;;;;31.50;21.75;;;;;-2.45;76.91;100166.66;4968263;28;8868;-57
2021/03/09 02:51:28;;;;;;;;;30.75;26.00;;;;;-2.51;76.00;100166.63;4965187;28;8836;-57
2021/03/09 02:53:57;;;;;;;;;54.50;43.50;;;;;-2.26;76.21;100161.34;4958385;28;9593;-57
2021/03/09 02:56:24;;;;;;;;;58.00;37.25;;;;;-2.32;77.13;100166.59;4949045;28;8865;-57
2021/03/09 02:58:56;;;;;;;;;38.00;27.50;;;;;-2.71;77.91;100168.41;4961049;28;8866;-58
2021/03/09 03:01:30;;;;;;;;;52.25;34.75;;;;;-2.43;76.68;100167.50;4975338;28;8894;-58
2021/03/09 03:03:59;;;;;;;;;46.75;33.50;;;;;-2.71;77.12;100173.66;4991123;28;8849;-57
2021/03/09 03:06:29;;;;;;;;;53.00;34.50;;;;;-2.46;77.59;100167.50;4990438;28;8849;-58
2021/03/09 03:08:57;;;;;;;;;35.25;25.00;;;;;-2.37;77.01;100169.28;4974980;28;8860;-58
2021/03/09 03:11:25;;;;;;;;;29.25;24.25;;;;;-2.74;77.98;100182.44;4966317;28;8840;-57
2021/03/09 03:13:54;;;;;;;;;30.25;23.75;;;;;-2.59;76.54;100178.03;4979131;28;9763;-58
2021/03/09 03:16:23;;;;;;;;;29.25;22.50;;;;;-2.72;76.63;100178.03;5006594;28;8857;-58
2021/03/09 03:18:50;;;;;;;;;29.25;16.00;;;;;-2.62;77.27;100178.91;4981319;28;8847;-57
2021/03/09 03:21:18;;;;;;;;;35.75;20.50;;;;;-2.73;77.13;100181.53;4961561;28;8866;-57
2021/03/09 03:23:45;;;;;;;;;35.25;22.75;;;;;-2.59;76.86;100183.28;4974866;28;8966;-57
2021/03/09 03:26:15;;;;;;;;;30.75;22.00;;;;;-2.28;76.41;100179.75;4966027;28;8873;-58
2021/03/09 03:28:45;;;;;;;;;29.00;26.00;;;;;-2.68;75.94;100187.69;4983142;28;8947;-57
2021/03/09 03:31:13;;;;;;;;;40.50;28.50;;;;;-2.80;77.06;100181.53;4984174;28;8832;-56
2021/03/09 03:33:40;;;;;;;;;45.75;29.75;;;;;-2.61;76.63;100180.66;4964535;28;8855;-59
2021/03/09 03:36:07;;;;;;;;;79.75;56.00;;;;;-2.88;78.20;100179.78;4987666;28;8840;-57
2021/03/09 03:38:40;;;;;;;;;47.50;37.75;;;;;-2.93;78.36;100175.38;4974024;28;8848;-58
2021/03/09 03:41:09;;;;;;;;;36.75;30.75;;;;;-3.02;78.51;100180.66;4953621;28;8834;-57
2021/03/09 03:43:38;;;;;;;;;41.50;32.25;;;;;-3.06;78.53;100169.25;4962932;28;8855;-57
2021/03/09 03:46:06;;;;;;;;;32.00;27.00;;;;;-3.02;78.66;100178.91;4974264;28;8859;-57
2021/03/09 03:48:35;;;;;;;;;33.00;29.00;;;;;-2.71;78.51;100179.78;4973606;28;8844;-58
2021/03/09 03:51:08;;;;;;;;;47.50;27.75;;;;;-2.96;78.94;100183.28;4973885;28;8864;-57
2021/03/09 03:54:16;;;;;;;;;43.00;32.00;;;;;-2.52;78.32;100180.66;4973979;28;8856;-57
2021/03/09 03:57:11;;;;;;;;;42.50;27.00;;;;;-2.62;77.74;100194.69;4967256;28;8998;-58
2021/03/09 03:59:46;;;;;;;;;42.25;32.00;;;;;-2.65;78.34;100189.44;4973923;28;8963;-58
2021/03/09 04:02:16;;;;;;;;;65.75;37.25;;;;;-2.53;77.06;100197.28;4973713;28;8984;-59
2021/03/09 04:04:47;;;;;;;;;41.00;28.50;;;;;-2.65;77.91;100194.69;4972918;28;8852;-57
2021/03/09 04:07:22;;;;;;;;;32.00;26.50;;;;;-2.51;78.49;100194.69;4974679;28;8955;-57
2021/03/09 04:09:54;;;;;;;;;43.75;33.75;;;;;-2.83;78.08;100194.69;4974952;28;8844;-58
2021/03/09 04:12:29;;;;;;;;;30.25;28.25;;;;;-2.94;78.67;100198.16;4973982;28;8837;-58
2021/03/09 04:14:59;;;;;;;;;42.50;23.00;;;;;-2.97;79.54;100192.91;4979915;28;8880;-57
2021/03/09 04:17:27;;;;;;;;;42.25;34.00;;;;;-2.50;77.38;100193.78;4994305;28;8845;-57
2021/03/09 04:19:56;;;;;;;;;45.25;30.25;;;;;-2.77;79.31;100198.16;4975650;28;8851;-58
2021/03/09 04:22:26;;;;;;;;;75.75;55.25;;;;;-2.87;78.81;100196.41;4973715;28;8864;-57
2021/03/09 04:24:55;;;;;;;;;75.50;43.25;;;;;-2.68;78.26;100189.44;4974110;28;9578;-58
2021/03/09 04:27:22;;;;;;;;;67.75;46.75;;;;;-2.51;76.87;100192.91;4973375;28;8879;-57
2021/03/09 04:29:57;;;;;;;;;66.75;48.25;;;;;-2.63;78.45;100200.81;4974078;28;8852;-57
2021/03/09 04:32:25;;;;;;;;;69.25;47.50;;;;;-2.77;79.13;100194.66;4974500;28;8875;-58
2021/03/09 04:34:54;;;;;;;;;73.50;54.75;;;;;-2.64;78.48;100191.16;4972598;28;8947;-58
2021/03/09 04:37:37;;;;;;;;;66.75;46.25;;;;;-2.51;78.25;100198.19;4972836;28;8852;-57
2021/03/09 04:40:06;;;;;;;;;68.75;49.25;;;;;-2.80;79.00;100192.03;4973482;28;8970;-57
2021/03/09 04:42:34;;;;;;;;;75.25;51.50;;;;;-2.73;78.57;100196.44;4973770;28;8938;-57
2021/03/09 04:45:01;;;;;;;;;81.50;48.25;;;;;-2.83;78.73;100194.69;4972898;28;8884;-57
2021/03/09 04:47:30;;;;;;;;;70.25;49.25;;;;;-2.92;79.58;100204.31;4974602;28;8939;-57
2021/03/09 04:49:57;;;;;;;;;67.50;47.00;;;;;-2.83;78.79;100202.56;4973320;28;8859;-56
2021/03/09 04:52:26;;;;;;;;;68.25;48.50;;;;;-2.80;78.68;100199.94;4974491;28;8860;-57
2021/03/09 04:54:55;;;;;;;;;72.75;46.00;;;;;-2.74;78.12;100202.53;4973167;28;9594;-57
2021/03/09 04:57:37;;;;;;;;;66.50;48.50;;;;;-2.87;79.32;100199.94;4973468;28;8849;-58
2021/03/09 05:00:10;;;;;;;;;66.75;41.50;;;;;-3.01;79.43;100206.03;4973831;28;8867;-57
2021/03/09 05:02:47;;;;;;;;;63.75;44.50;;;;;-2.99;79.18;100204.28;4973886;28;8852;-57
2021/03/09 05:05:16;;;;;;;;;51.00;37.25;;;;;-2.67;78.29;100210.44;4973084;28;8873;-57
2021/03/09 05:07:43;;;;;;;;;57.75;43.00;;;;;-2.56;78.60;100205.19;4977258;28;8952;-57
2021/03/09 05:10:13;;;;;;;;;57.00;41.75;;;;;-2.63;77.88;100213.97;4978395;28;9577;-57
2021/03/09 05:12:51;;;;;;;;;46.25;28.25;;;;;-2.53;77.75;100214.81;4977263;28;8844;-58
2021/03/09 05:15:19;;;;;;;;;58.50;43.25;;;;;-2.57;77.58;100205.22;4986600;28;8830;-57
2021/03/09 05:17:50;;;;;;;;;61.00;45.50;;;;;-2.72;77.92;100201.69;4996975;28;8849;-58
2021/03/09 05:20:19;;;;;;;;;73.50;49.00;;;;;-2.98;76.69;100211.28;4997666;28;8858;-57
2021/03/09 05:22:47;;;;;;;;;49.00;40.00;;;;;-2.70;77.23;100206.94;4995966;28;8834;-56
2021/03/09 05:25:16;;;;;;;;;64.25;46.25;;;;;-2.50;75.72;100209.56;4977463;28;8887;-57
2021/03/09 05:27:45;;;;;;;;;59.00;44.50;;;;;-3.20;77.58;100213.00;4977407;28;8902;-57
2021/03/09 05:30:15;;;;;;;;;59.75;46.00;;;;;-3.04;78.15;100209.53;4978142;28;9554;-57
2021/03/09 05:32:47;;;;;;;;;59.25;43.00;;;;;-2.66;77.62;100208.69;4976776;28;8832;-57
2021/03/09 05:35:16;;;;;;;;;61.25;47.50;;;;;-2.31;75.94;100206.06;4976907;28;8856;-57
2021/03/09 05:37:45;;;;;;;;;71.25;47.50;;;;;-2.02;74.69;100208.66;4976979;28;8860;-57
2021/03/09 05:40:15;;;;;;;;;66.25;45.25;;;;;-1.70;74.09;100212.94;4978146;28;8832;-56
2021/03/09 05:42:53;;;;;;;;;71.00;47.00;;;;;-1.57;73.40;100212.03;4977548;28;8841;-58
2021/03/09 05:45:23;;;;;;;;;66.00;48.75;;;;;-1.94;74.86;100210.41;4977137;28;8911;-58
2021/03/09 05:47:52;;;;;;;;;65.75;48.00;;;;;-1.80;73.89;100214.72;4976720;28;8871;-57
2021/03/09 05:50:20;;;;;;;;;45.75;41.00;;;;;-0.91;71.03;100218.72;4976711;28;8825;-57
2021/03/09 05:52:48;;;;;;;;;39.50;33.75;;;;;-0.92;70.30;100222.25;4976914;28;8848;-58
2021/03/09 05:55:16;;;;;;;;;45.25;28.00;;;;;-1.69;71.92;100227.84;4977238;28;8895;-57
2021/03/09 05:57:48;;;;;;;;;34.75;21.50;;;;;-1.22;71.15;100224.16;4977221;28;8844;-58
2021/03/09 06:00:16;;;;;;;;;43.00;34.25;;;;;-0.90;70.16;100215.19;4976222;28;8824;-58
2021/03/09 06:02:47;;;;;;;;;39.00;32.50;;;;;-1.42;71.69;100216.34;4977161;28;8859;-57
2021/03/09 06:05:14;;;;;;;;;50.00;28.50;;;;;-0.03;67.92;100217.13;4976999;28;8872;-57
2021/03/09 06:07:41;;;;;;;;;56.75;45.00;;;;;-0.05;66.79;100223.31;4977333;28;8884;-58
2021/03/09 06:10:23;;;;;;;;;51.25;39.25;;;;;-0.37;68.09;100232.41;4976505;28;8959;-57
2021/03/09 06:12:51;;;;;;;;;62.00;44.00;;;;;-0.80;69.97;100224.78;4976136;28;8836;-57
2021/03/09 06:15:20;;;;;;;;;52.50;36.75;;;;;-0.72;68.79;100230.88;4982774;28;8891;-57
2021/03/09 06:17:58;;;;;;;;;61.00;44.50;;;;;-0.94;70.20;100235.41;4975030;28;8862;-58
2021/03/09 06:20:26;;;;;;;;;62.00;36.00;;;;;-0.71;69.32;100235.28;4976499;28;8868;-58
2021/03/09 06:23:01;;;;;;;;;43.25;28.50;;;;;-0.95;70.02;100244.22;4974537;28;8853;-57
2021/03/09 06:25:39;;;;;;;;;19.50;13.00;;;;;-1.25;71.69;100244.38;4976884;28;8851;-58
2021/03/09 06:28:10;;;;;;;;;17.50;15.75;;;;;-1.25;73.29;100247.00;4976119;28;8871;-58
2021/03/09 06:30:40;;;;;;;;;20.00;17.00;;;;;-0.63;70.80;100244.88;4976727;28;8829;-58
2021/03/09 06:33:08;;;;;;;;;21.00;17.75;;;;;-0.88;71.17;100250.31;4976703;28;8844;-57
2021/03/09 06:35:40;;;;;;;;;24.00;15.75;;;;;-0.63;71.74;100251.06;4976362;28;8840;-57
2021/03/09 06:38:28;;;;;;;;;33.25;26.00;;;;;-0.53;66.63;100252.72;4976303;28;8948;-58
2021/03/09 06:41:15;;;;;;;;;26.75;21.00;;;;;-0.17;65.15;100260.34;4975906;28;8894;-60
2021/03/09 06:43:46;;;;;;;;;31.50;21.50;;;;;-0.01;64.13;100260.19;4976036;28;8950;-58
2021/03/09 06:46:17;;;;;;;;;34.75;25.50;;;;;0.45;64.15;100264.16;4976658;28;8876;-57
2021/03/09 06:48:50;;;;;;;;;41.25;33.25;;;;;0.88;62.79;100264.50;4976548;28;8840;-57
2021/03/09 06:51:34;;;;;;;;;31.25;27.00;;;;;0.64;62.16;100265.69;4976228;28;8867;-58
2021/03/09 06:54:05;;;;;;;;;26.00;19.50;;;;;0.96;60.63;100266.19;4976757;28;8886;-58
2021/03/09 06:56:43;;;;;;;;;17.50;13.50;;;;;0.85;57.15;100264.53;4976385;28;8868;-60
2021/03/09 06:59:30;;;;;;;;;13.50;9.75;;;;;1.21;55.27;100269.34;4975486;28;8872;-59
2021/03/09 07:02:28;;;;;;;;;21.00;17.00;;;;;1.36;54.93;100260.34;4976410;28;8952;-59
2021/03/09 07:05:13;;;;;;;;;16.00;12.00;;;;;1.56;53.99;100265.34;4976262;28;8871;-59
2021/03/09 07:07:43;;;;;;;;;21.50;14.00;;;;;3.01;49.51;100265.28;4975614;28;8848;-59
2021/03/09 07:10:16;;;;;;;;;12.00;9.00;;;;;5.23;43.56;100268.44;4975955;28;8882;-54
2021/03/09 07:12:45;;;;;;;;;18.33;13.00;;;;;8.10;40.20;100266.97;4975963;28;8860;-58
2021/03/09 07:15:21;;;;;;;;;18.33;16.00;;;;;7.70;39.19;100265.06;4983862;28;8875;-58
2021/03/09 07:17:51;;;;;;;;;14.00;14.00;;;;;6.81;39.70;100258.69;4995803;28;8849;-59
2021/03/09 07:20:19;;;;;;;;;25.00;22.33;;;;;8.34;37.56;100264.19;4994617;28;8822;-57
2021/03/09 07:22:54;;;;;;;;;16.67;16.00;;;;;2.13;50.25;100266.16;4995876;28;8846;-56
2021/03/09 07:25:21;;;;;;;;;20.75;15.25;;;;;2.44;50.95;100275.28;4995398;28;8865;-58
2021/03/09 07:28:06;;;;;;;;;23.25;15.25;;;;;2.46;52.26;100268.19;5010134;28;8873;-59
2021/03/09 07:30:39;;;;;;;;;19.25;13.00;;;;;2.16;52.23;100262.56;4993874;28;8861;-59
2021/03/09 07:33:08;;;;;;;;;28.00;20.00;;;;;2.62;50.23;100261.69;4995113;28;8850;-58
2021/03/09 07:35:35;;;;;;;;;13.00;11.00;;;;;2.51;51.47;100261.03;4972836;28;9572;-60
2021/03/09 07:38:04;;;;;;;;;16.00;10.00;;;;;2.52;50.52;100250.38;4956426;28;8851;-55
2021/03/09 07:40:35;;;;;;;;;15.50;11.50;;;;;2.30;51.41;100260.53;4956366;28;8835;-59
2021/03/09 07:43:03;;;;;;;;;15.25;10.75;;;;;3.11;50.13;100249.16;4957961;28;8847;-60
2021/03/09 07:45:36;;;;;;;;;8.00;7.00;;;;;2.55;49.33;100250.31;4969733;28;8890;-56
2021/03/09 07:48:10;;;;;;;;;18.50;13.00;;;;;2.51;49.72;100255.72;4975059;28;8860;-57
2021/03/09 07:50:43;;;;;;;;;10.75;10.75;;;;;2.52;49.63;100254.81;4969002;28;8820;-57
2021/03/09 07:53:29;;;;;;;;;17.00;13.00;;;;;2.82;48.99;100253.34;4972381;28;8846;-57
2021/03/09 07:56:14;;;;;;;;;15.50;12.50;;;;;3.32;47.66;100251.38;4975517;28;9610;-58
2021/03/09 07:58:42;;;;;;;;;22.00;14.00;;;;;3.10;47.71;100253.59;4974545;28;8813;-58
2021/03/09 08:01:12;;;;;;;;;14.50;13.50;;;;;2.87;48.33;100254.13;4973542;28;8812;-58
2021/03/09 08:03:44;;;;;;;;;28.25;22.50;;;;;3.29;47.22;100248.75;4975289;28;8817;-58
2021/03/09 08:06:15;;;;;;;;;29.75;19.00;;;;;3.45;47.09;100243.97;4974999;28;8837;-59
2021/03/09 08:08:55;;;;;;;;;15.00;12.25;;;;;2.65;48.03;100245.72;4974833;28;8970;-58
2021/03/09 08:11:23;;;;;;;;;27.00;22.50;;;;;2.97;47.98;100241.50;4974603;28;8821;-58
2021/03/09 08:14:04;;;;;;;;;12.25;10.00;;;;;2.80;47.72;100250.72;4975254;28;8817;-57
2021/03/09 08:16:43;;;;;;;;;14.75;11.75;;;;;3.29;47.69;100251.41;4977707;28;8872;-58
2021/03/09 08:19:13;;;;;;;;;20.25;11.50;;;;;3.17;47.04;100241.94;4974961;28;8848;-59
2021/03/09 08:22:04;;;;;;;;;16.50;11.00;;;;;3.35;47.35;100247.75;4974723;28;8871;-58
2021/03/09 08:24:42;;;;;;;;;25.50;21.25;;;;;4.29;45.61;100243.63;4969663;28;8858;-58
2021/03/09 08:27:30;;;;;;;;;27.00;14.00;;;;;4.04;46.55;100244.28;4975141;28;8828;-58
2021/03/09 08:30:24;;;;;;;;;13.75;13.50;;;;;4.03;45.34;100253.19;4967638;28;9611;-58
2021/03/09 08:32:53;;;;;;;;;19.75;15.50;;;;;3.82;44.52;100251.03;4974200;28;8879;-58
2021/03/09 08:35:21;;;;;;;;;12.25;7.00;;;;;4.18;44.18;100244.78;4974992;28;8841;-59
2021/03/09 08:37:50;;;;;;;;;22.50;15.25;;;;;4.18;44.52;100247.44;4974121;28;8992;-58
2021/03/09 08:40:22;;;;;;;;;19.00;14.25;;;;;4.38;43.51;100254.91;4972818;28;8921;-58
2021/03/09 08:43:02;;;;;;;;;12.75;7.00;;;;;3.81;43.77;100254.63;4971691;28;9600;-58
2021/03/09 08:45:41;;;;;;;;;13.75;10.00;;;;;3.35;43.68;100247.75;4974107;28;8943;-56
2021/03/09 08:48:12;;;;;;;;;20.25;18.00;;;;;4.36;42.21;100245.22;4973970;28;8864;-58
2021/03/09 08:50:47;;;;;;;;;19.25;14.00;;;;;4.83;42.49;100254.53;4973311;28;8847;-60
2021/03/09 08:53:34;;;;;;;;;20.00;12.00;;;;;4.41;40.26;100248.63;4973879;28;8864;-58
2021/03/09 08:56:05;;;;;;;;;12.00;9.00;;;;;4.59;41.07;100241.94;4973783;28;8840;-59
2021/03/09 08:58:40;;;;;;;;;12.00;10.00;;;;;4.25;41.33;100247.28;4973679;28;8874;-58
2021/03/09 09:01:08;;;;;;;;;8.50;8.50;;;;;4.38;40.56;100243.41;4974742;28;8958;-58
2021/03/09 09:03:38;;;;;;;;;11.50;8.00;;;;;3.44;40.15;100242.22;4972569;28;8840;-58
2021/03/09 09:06:06;;;;;;;;;10.00;8.00;;;;;4.73;40.12;100239.72;4973669;28;8837;-58
2021/03/09 09:08:33;;;;;;;;;15.00;11.50;;;;;4.49;39.27;100235.13;4974369;28;8919;-58
2021/03/09 09:11:01;;;;;;;;;12.00;10.50;;;;;4.47;39.82;100234.28;4973405;28;8947;-59
2021/03/09 09:13:29;;;;;;;;;19.75;15.75;;;;;4.64;41.40;100239.16;4974332;28;8840;-59
2021/03/09 09:15:56;;;;;;;;;13.33;11.33;;;;;5.31;40.75;100234.47;4957353;28;8867;-59
2021/03/09 09:18:24;;;;;;;;;30.25;24.50;;;;;5.13;40.44;100240.34;4974184;28;8903;-58
2021/03/09 09:20:52;;;;;;;;;15.67;11.67;;;;;4.46;40.64;100241.38;4973803;28;8844;-58
2021/03/09 09:23:27;;;;;;;;;16.67;12.00;;;;;4.36;41.97;100235.44;4973596;28;8851;-59
2021/03/09 09:26:02;;;;;;;;;53.25;36.25;;;;;4.71;40.41;100235.38;4973760;28;8871;-59
2021/03/09 09:28:34;;;;;;;;;30.00;24.50;;;;;4.93;41.12;100222.34;4973421;28;8875;-59
2021/03/09 09:31:09;;;;;;;;;32.25;26.50;;;;;5.00;39.45;100232.75;4973749;28;8919;-59
2021/03/09 09:33:54;;;;;;;;;29.00;22.50;;;;;4.86;39.40;100226.94;4973823;28;8924;-59
2021/03/09 09:36:23;;;;;;;;;63.00;43.00;;;;;5.13;39.80;100222.59;4973801;28;8832;-59
2021/03/09 09:38:55;;;;;;;;;21.25;18.25;;;;;5.22;39.67;100229.44;4973640;28;8856;-60
2021/03/09 09:41:25;;;;;;;;;12.00;12.00;;;;;4.65;39.43;100212.50;4973023;28;8840;-60
2021/03/09 09:43:53;;;;;;;;;66.50;47.25;;;;;4.71;40.09;100220.28;4970293;28;8859;-60
2021/03/09 09:46:29;;;;;;;;;16.67;13.00;;;;;5.21;39.13;100214.34;4971723;28;8891;-59
2021/03/09 09:48:58;;;;;;;;;47.00;35.25;;;;;4.63;38.86;100216.97;4972501;28;8864;-59
2021/03/09 09:51:26;;;;;;;;;15.67;10.33;;;;;4.76;39.58;100220.16;4973734;28;8864;-59
2021/03/09 09:53:54;;;;;;;;;16.00;10.33;;;;;5.17;39.85;100218.06;4964856;28;8849;-59
2021/03/09 09:56:25;;;;;;;;;18.75;18.50;;;;;4.90;39.63;100215.31;4971956;28;8840;-58
2021/03/09 09:58:58;;;;;;;;;56.00;48.00;;;;;5.26;39.54;100212.44;4976666;28;8852;-59
2021/03/09 10:01:36;;;;;;;;;65.50;45.25;;;;;5.64;38.97;100213.88;4958328;28;8843;-59
2021/03/09 10:04:05;;;;;;;;;35.00;24.50;;;;;4.63;39.50;100211.66;4977090;28;8844;-59
2021/03/09 10:06:43;;;;;;;;;24.25;15.50;;;;;4.67;40.54;100205.34;4977049;28;8852;-60
2021/03/09 10:09:25;;;;;;;;;15.00;13.33;;;;;5.90;38.68;100198.81;4975977;28;8883;-59
2021/03/09 16:44:42;;;;;;;;;19.75;17.00;;;;;2.67;45.47;99949.66;2899849;28;10581;-66
2021/03/09 16:47:09;;;;;;;;;25.50;17.00;;;;;2.73;45.67;99946.84;4986518;28;8923;-62
2021/03/09 16:49:38;;;;;;;;;25.50;19.25;;;;;2.36;45.66;99950.38;4986317;28;8893;-61
2021/03/09 16:52:07;;;;;;;;;22.75;21.25;;;;;2.22;46.14;99949.00;4985404;28;8845;-63
2021/03/09 16:54:34;;;;;;;;;31.25;20.00;;;;;2.07;46.69;99944.91;5000520;28;8852;-61
2021/03/09 16:57:02;;;;;;;;;18.50;17.50;;;;;2.24;46.72;99958.66;4977699;28;8953;-63
2021/03/09 16:59:37;;;;;;;;;19.25;15.75;;;;;2.18;46.84;99961.41;4976309;28;8834;-63
2021/03/09 17:02:06;;;;;;;;;26.75;18.50;;;;;2.18;46.25;99962.28;4981537;28;8836;-63
2021/03/09 17:04:33;;;;;;;;;24.25;16.75;;;;;1.80;47.22;99962.28;4968512;28;8848;-60
2021/03/09 17:07:01;;;;;;;;;31.25;23.50;;;;;1.95;47.09;99968.13;4966865;28;8882;-62
2021/03/09 17:09:29;;;;;;;;;38.75;27.25;;;;;1.84;47.93;99966.59;4989080;28;8839;-62
2021/03/09 17:11:56;;;;;;;;;57.50;37.50;;;;;1.73;48.91;99966.81;4987068;28;8853;-63
2021/03/09 17:14:24;;;;;;;;;68.75;47.50;;;;;1.98;47.97;99968.03;5003228;28;8933;-62
2021/03/09 17:16:51;;;;;;;;;88.75;64.00;;;;;1.66;48.22;99971.38;5002243;28;8959;-63
2021/03/09 17:19:20;;;;;;;;;66.75;51.00;;;;;1.61;49.01;99975.03;4987502;28;8822;-62
2021/03/09 17:22:04;;;;;;;;;65.50;47.25;;;;;1.50;48.77;99973.47;4974611;28;8852;-60
2021/03/09 17:24:32;;;;;;;;;65.25;50.00;;;;;1.43;49.18;99970.97;4983102;28;9618;-63
2021/03/09 17:27:03;;;;;;;;;74.25;48.50;;;;;1.20;50.52;99976.69;4984871;28;8958;-61
2021/03/09 17:29:33;;;;;;;;;73.75;54.25;;;;;1.29;49.74;99974.75;4978232;28;8876;-61
2021/03/09 17:32:02;;;;;;;;;69.50;49.00;;;;;1.34;49.13;99979.94;4976781;28;8849;-60
2021/03/09 17:34:29;;;;;;;;;72.25;52.00;;;;;1.20;50.23;99979.34;4987735;28;9512;-60
2021/03/09 17:36:58;;;;;;;;;73.50;53.75;;;;;1.30;49.27;99978.28;4986263;28;8842;-62
2021/03/09 17:39:27;;;;;;;;;72.75;51.25;;;;;1.16;50.01;99980.28;4971742;28;8928;-60
2021/03/09 17:41:56;;;;;;;;;66.25;46.00;;;;;1.16;50.13;99978.53;5015802;28;8851;-61
2021/03/09 17:44:23;;;;;;;;;64.25;45.00;;;;;0.94;50.42;99980.69;4981725;28;8829;-61
2021/03/09 17:46:54;;;;;;;;;51.75;42.00;;;;;0.80;50.76;99985.34;4974306;28;9503;-61
2021/03/09 17:49:23;;;;;;;;;43.50;36.25;;;;;0.89;50.41;99987.81;5001042;28;9972;-61
2021/03/09 17:51:50;;;;;;;;;40.50;31.00;;;;;0.87;50.38;99985.22;5009660;28;8920;-63
2021/03/09 17:54:17;;;;;;;;;31.00;28.50;;;;;0.91;51.50;99986.03;4983587;28;8873;-61
2021/03/09 17:56:44;;;;;;;;;42.50;29.25;;;;;0.79;51.36;99979.19;4976343;28;8844;-62
2021/03/09 17:59:11;;;;;;;;;36.25;28.75;;;;;0.68;50.79;99982.91;4987508;28;8884;-63
2021/03/09 18:01:40;;;;;;;;;38.00;28.50;;;;;0.75;51.24;99979.28;4981484;28;8844;-62
2021/03/09 18:04:07;;;;;;;;;44.75;30.25;;;;;0.77;51.36;99977.47;4988476;28;8857;-63
2021/03/09 18:06:34;;;;;;;;;54.50;34.50;;;;;0.93;50.62;99976.31;4996505;28;9689;-60
2021/03/09 18:09:02;;;;;;;;;65.75;48.75;;;;;0.94;49.96;99975.41;4982241;28;9565;-63
2021/03/09 18:11:28;;;;;;;;;65.50;48.25;;;;;0.79;50.71;99973.91;4987884;28;8867;-61
2021/03/09 18:13:55;;;;;;;;;74.75;50.75;;;;;1.27;51.85;99973.91;5004518;28;8841;-63
2021/03/09 18:16:22;;;;;;;;;73.25;55.50;;;;;0.55;52.04;99972.53;4982162;28;9687;-62
2021/03/09 18:18:49;;;;;;;;;54.75;45.25;;;;;0.00;53.80;99973.38;5007916;28;8955;-61